createdAt,value
2018-04-15T00:00:28.332Z,99412.70
2018-04-15T00:02:56.005Z,99410.58
2018-04-15T00:05:23.646Z,99415.04
2018-04-15T00:07:51.236Z,99412.91
2018-04-15T00:10:18.996Z,99416.12
2018-04-15T00:12:46.635Z,99420.53
2018-04-15T00:15:14.289Z,99408.84
2018-04-15T00:17:42.504Z,99410.98
2018-04-15T00:20:10.260Z,99400.00
2018-04-15T00:22:37.881Z,99396.56
2018-04-15T00:25:05.502Z,99401.98
2018-04-15T00:27:33.894Z,99392.27
2018-04-15T00:30:01.545Z,99395.92
2018-04-15T00:32:29.140Z,99387.48
2018-04-15T00:34:56.832Z,99395.16
2018-04-15T00:37:24.428Z,99387.39
2018-04-15T00:39:52.039Z,99394.52
2018-04-15T00:42:19.768Z,99393.38
2018-04-15T00:44:47.353Z,99400.53
2018-04-15T00:47:14.949Z,99395.66
2018-04-15T00:49:42.660Z,99399.94
2018-04-15T00:52:10.323Z,99397.02
2018-04-15T00:54:37.925Z,99394.20
2018-04-15T00:57:05.726Z,99397.09
2018-04-15T00:59:33.328Z,99393.13
2018-04-15T01:02:01.874Z,99393.30
2018-04-15T01:04:29.604Z,99389.61
2018-04-15T01:06:57.199Z,99381.84
2018-04-15T01:09:24.793Z,99384.36
2018-04-15T01:11:52.627Z,99391.60
2018-04-15T01:14:20.862Z,99388.72
2018-04-15T01:16:48.517Z,99381.57
2018-04-15T01:19:16.148Z,99383.97
2018-04-15T01:21:43.743Z,99377.63
2018-04-15T01:24:11.350Z,99366.64
2018-04-15T01:26:38.998Z,99370.11
2018-04-15T01:29:07.712Z,99362.17
2018-04-15T01:31:35.322Z,99352.72
2018-04-15T01:34:03.077Z,99345.47
2018-04-15T01:36:30.663Z,99346.05
2018-04-15T01:38:59.153Z,99342.84
2018-04-15T01:41:26.886Z,99345.66
2018-04-15T01:43:54.486Z,99339.14
2018-04-15T01:46:22.082Z,99334.66
2018-04-15T01:48:49.776Z,99340.48
2018-04-15T01:51:17.379Z,99339.63
2018-04-15T01:53:45.001Z,99339.05
2018-04-15T01:56:12.633Z,99342.23
2018-04-15T01:58:40.222Z,99345.20
2018-04-15T02:01:07.811Z,99345.02
2018-04-15T02:03:35.451Z,99348.34
2018-04-15T02:06:03.100Z,99354.75
2018-04-15T02:08:30.761Z,99355.09
2018-04-15T02:10:58.491Z,99349.23
2018-04-15T02:13:27.277Z,99341.64
2018-04-15T02:15:54.918Z,99343.20
2018-04-15T02:18:22.611Z,99331.64
2018-04-15T02:20:50.211Z,99332.14
2018-04-15T02:23:17.796Z,99342.85
2018-04-15T02:25:45.560Z,99336.26
2018-04-15T02:28:13.201Z,99342.95
2018-04-15T02:30:40.804Z,99346.82
2018-04-15T02:33:08.424Z,99348.51
2018-04-15T02:35:36.019Z,99353.30
2018-04-15T02:38:03.668Z,99350.72
2018-04-15T02:40:31.488Z,99347.38
2018-04-15T02:42:59.124Z,99352.34
2018-04-15T02:45:26.736Z,99346.72
2018-04-15T02:47:54.377Z,99349.41
2018-04-15T02:50:21.970Z,99359.79
2018-04-15T02:52:49.603Z,99358.42
2018-04-15T02:55:17.256Z,99362.27
2018-04-15T02:57:44.851Z,99372.00
2018-04-15T03:00:12.440Z,99382.98
2018-04-15T03:02:40.160Z,99381.05
2018-04-15T03:05:07.747Z,99378.27
2018-04-15T03:07:35.396Z,99385.81
2018-04-15T03:10:03.182Z,99395.38
2018-04-15T03:12:30.824Z,99392.43
2018-04-15T03:14:58.539Z,99389.98
2018-04-15T03:17:26.255Z,99385.20
2018-04-15T03:19:53.837Z,99391.87
2018-04-15T03:22:21.485Z,99400.36
2018-04-15T03:24:49.213Z,99405.65
2018-04-15T03:27:16.810Z,99401.98
2018-04-15T03:29:44.436Z,99398.35
2018-04-15T03:32:12.063Z,99405.86
2018-04-15T03:34:39.752Z,99400.22
2018-04-15T03:37:07.363Z,99406.24
2018-04-15T03:39:35.149Z,99408.57
2018-04-15T03:42:02.866Z,99407.34
2018-04-15T03:44:30.510Z,99411.09
2018-04-15T03:46:58.250Z,99404.30
2018-04-15T03:49:25.913Z,99400.92
2018-04-15T03:51:53.749Z,99399.77
2018-04-15T03:54:22.247Z,99400.09
2018-04-15T03:56:49.822Z,99397.94
2018-04-15T03:59:17.407Z,99404.61
2018-04-15T04:01:45.170Z,99399.60
2018-04-15T04:04:12.748Z,99397.81
2018-04-15T04:06:40.336Z,99403.03
2018-04-15T04:09:07.983Z,99396.39
2018-04-15T04:11:35.568Z,99393.47
2018-04-15T04:14:03.216Z,99396.57
2018-04-15T04:16:31.175Z,99401.70
2018-04-15T04:19:10.641Z,99398.59
2018-04-15T04:21:50.036Z,99394.34
2018-04-15T04:24:29.547Z,99402.20
2018-04-15T04:26:57.180Z,99406.37
2018-04-15T04:29:24.825Z,99409.80
2018-04-15T04:31:52.404Z,99407.64
2018-04-15T04:34:20.185Z,99412.28
2018-04-15T04:36:47.825Z,99406.13
2018-04-15T04:39:15.460Z,99408.72
2018-04-15T04:41:43.098Z,99411.82
2018-04-15T04:44:10.680Z,99415.30
2018-04-15T04:46:38.316Z,99420.82
2018-04-15T04:49:06.504Z,99430.67
2018-04-15T04:51:34.144Z,99438.88
2018-04-15T04:54:01.805Z,99432.77
2018-04-15T04:56:29.502Z,99434.30
2018-04-15T04:58:57.093Z,99443.77
2018-04-15T05:01:24.744Z,99452.87
2018-04-15T05:03:52.470Z,99458.09
2018-04-15T05:06:20.140Z,99457.51
2018-04-15T05:08:47.731Z,99451.23
2018-04-15T05:11:15.541Z,99454.69
2018-04-15T05:13:43.136Z,99464.42
2018-04-15T05:16:10.708Z,99465.32
2018-04-15T05:18:38.980Z,99462.27
2018-04-15T05:21:06.573Z,99468.29
2018-04-15T05:23:34.168Z,99466.17
2018-04-15T05:26:02.190Z,99470.47
2018-04-15T05:28:30.148Z,99478.98
2018-04-15T05:30:57.737Z,99488.58
2018-04-15T05:33:26.268Z,99489.97
2018-04-15T05:35:54.619Z,99484.77
2018-04-15T05:38:22.212Z,99488.23
2018-04-15T05:40:50.168Z,99483.48
2018-04-15T05:43:17.757Z,99485.41
2018-04-15T05:45:45.347Z,99483.47
2018-04-15T05:48:12.973Z,99486.80
2018-04-15T05:50:40.571Z,99486.48
2018-04-15T05:53:08.162Z,99487.98
2018-04-15T05:55:35.954Z,99483.37
2018-04-15T05:58:03.540Z,99487.20
2018-04-15T06:00:31.189Z,99491.41
2018-04-15T06:02:58.820Z,99498.54
2018-04-15T06:05:26.540Z,99499.83
2018-04-15T06:07:54.166Z,99508.48
2018-04-15T06:10:21.850Z,99505.31
2018-04-15T06:12:49.499Z,99500.93
2018-04-15T06:15:17.095Z,99507.78
2018-04-15T06:17:45.581Z,99518.45
2018-04-15T06:20:14.295Z,99518.55
2018-04-15T06:22:46.360Z,99518.38
2018-04-15T06:25:15.637Z,99517.81
2018-04-15T06:27:44.072Z,99522.82
2018-04-15T06:30:12.691Z,99525.33
2018-04-15T06:32:40.317Z,99531.80
2018-04-15T06:35:07.916Z,99529.75
2018-04-15T06:37:36.475Z,99525.73
2018-04-15T06:40:04.149Z,99523.39
2018-04-15T06:42:31.810Z,99526.50
2018-04-15T06:44:59.484Z,99537.94
2018-04-15T06:47:27.074Z,99540.14
2018-04-15T06:49:54.673Z,99535.61
2018-04-15T06:52:22.296Z,99545.94
2018-04-15T06:54:49.880Z,99540.68
2018-04-15T06:57:17.480Z,99540.52
2018-04-15T06:59:45.184Z,99541.54
2018-04-15T07:02:12.763Z,99552.50
2018-04-15T07:04:40.350Z,99550.52
2018-04-15T07:07:08.055Z,99550.48
2018-04-15T07:09:35.700Z,99551.52
2018-04-15T07:12:03.369Z,99545.05
2018-04-15T07:14:31.079Z,99545.53
2018-04-15T07:16:58.753Z,99541.05
2018-04-15T07:19:26.332Z,99520.09
2018-04-15T07:21:54.266Z,99524.09
2018-04-15T07:24:21.892Z,99518.53
2018-04-15T07:26:49.485Z,99527.53
2018-04-15T07:29:17.231Z,99534.05
2018-04-15T07:31:44.882Z,99531.46
2018-04-15T07:34:12.496Z,99535.83
2018-04-15T07:36:40.188Z,99533.67
2018-04-15T07:39:07.779Z,99527.92
2018-04-15T07:41:35.403Z,99536.45
2018-04-15T07:44:03.055Z,99548.20
2018-04-15T07:46:30.717Z,99549.35
2018-04-15T07:48:58.935Z,99550.86
2018-04-15T07:51:26.568Z,99554.05
2018-04-15T07:53:54.227Z,99556.23
2018-04-15T07:56:21.906Z,99553.98
2018-04-15T07:58:52.097Z,99551.29
2018-04-15T08:01:19.838Z,99550.54
2018-04-15T08:03:47.421Z,99553.64
2018-04-15T08:06:15.150Z,99540.80
2018-04-15T08:08:42.795Z,99544.91
2018-04-15T08:11:11.220Z,99542.58
2018-04-15T08:13:38.864Z,99539.09
2018-04-15T08:16:06.521Z,99548.08
2018-04-15T08:18:34.113Z,99543.63
2018-04-15T08:21:01.908Z,99553.78
2018-04-15T08:23:29.859Z,99544.30
2018-04-15T08:25:57.448Z,99548.84
2018-04-15T08:28:25.082Z,99555.63
2018-04-15T08:30:52.755Z,99562.70
2018-04-15T08:33:20.374Z,99556.98
2018-04-15T08:35:48.025Z,99563.06
2018-04-15T08:38:15.669Z,99565.23
2018-04-15T08:40:43.261Z,99558.27
2018-04-15T08:43:11.019Z,99559.50
2018-04-15T08:45:38.658Z,99562.05
2018-04-15T08:48:06.240Z,99560.47
2018-04-15T08:50:33.871Z,99564.55
2018-04-15T08:53:01.479Z,99563.64
2018-04-15T08:55:29.128Z,99564.88
2018-04-15T08:57:56.779Z,99559.85
2018-04-15T09:00:24.379Z,99557.75
2018-04-15T09:02:51.955Z,99558.48
2018-04-15T09:05:20.115Z,99551.42
2018-04-15T09:07:47.703Z,99541.84
2018-04-15T09:10:15.339Z,99537.02
2018-04-15T09:12:43.100Z,99533.23
2018-04-15T09:15:10.749Z,99518.05
2018-04-15T09:17:38.390Z,99520.27
2018-04-15T09:20:06.120Z,99518.39
2018-04-15T09:22:33.708Z,99518.06
2018-04-15T09:25:01.387Z,99519.94
2018-04-15T09:27:29.103Z,99520.60
2018-04-15T09:29:56.713Z,99509.39
2018-04-15T09:32:24.364Z,99507.51
2018-04-15T09:34:52.044Z,99507.06
2018-04-15T09:37:19.646Z,99502.07
2018-04-15T09:39:47.290Z,99504.98
2018-04-15T09:42:15.030Z,99495.02
2018-04-15T09:44:42.718Z,99486.45
2018-04-15T09:47:10.321Z,99485.64
2018-04-15T09:49:37.965Z,99489.50
2018-04-15T09:52:05.577Z,99488.88
2018-04-15T09:54:33.165Z,99483.62
2018-04-15T09:57:00.891Z,99479.86
2018-04-15T09:59:28.468Z,99482.03
2018-04-15T10:01:56.060Z,99468.39
2018-04-15T10:04:24.089Z,99470.84
2018-04-15T10:06:51.724Z,99462.63
2018-04-15T10:09:19.397Z,99467.20
2018-04-15T10:11:47.808Z,99460.87
2018-04-15T10:14:15.392Z,99463.28
2018-04-15T10:16:42.984Z,99460.14
2018-04-15T10:19:11.286Z,99464.69
2018-04-15T10:21:38.916Z,99459.24
2018-04-15T10:24:06.661Z,99455.34
2018-04-15T10:26:34.420Z,99450.25
2018-04-15T10:29:02.006Z,99446.66
2018-04-15T10:31:29.648Z,99446.56
2018-04-15T10:33:57.432Z,99438.39
2018-04-15T10:36:25.024Z,99434.72
2018-04-15T10:38:52.672Z,99439.68
2018-04-15T10:41:20.364Z,99430.11
2018-04-15T10:43:47.956Z,99428.73
2018-04-15T10:46:16.149Z,99431.74
2018-04-15T10:48:43.781Z,99428.87
2018-04-15T10:51:11.364Z,99425.56
2018-04-15T10:53:38.981Z,99421.94
2018-04-15T10:56:06.708Z,99418.64
2018-04-15T10:58:34.291Z,99423.36
2018-04-15T11:01:01.933Z,99424.14
2018-04-15T11:03:29.740Z,99433.11
2018-04-15T11:05:57.425Z,99425.41
2018-04-15T11:08:25.010Z,99424.48
2018-04-15T11:10:52.632Z,99426.27
2018-04-15T11:13:20.223Z,99424.72
2018-04-15T11:15:47.874Z,99419.37
2018-04-15T11:18:15.517Z,99414.14
2018-04-15T11:20:43.480Z,99415.05
2018-04-15T11:23:11.084Z,99415.34
2018-04-15T11:25:38.790Z,99414.65
2018-04-15T11:28:06.609Z,99408.80
2018-04-15T11:30:34.199Z,99408.28
2018-04-15T11:33:01.852Z,99412.11
2018-04-15T11:35:29.440Z,99404.20
2018-04-15T11:37:57.056Z,99403.75
2018-04-15T11:40:24.760Z,99396.97
2018-04-15T11:42:53.114Z,99393.91
2018-04-15T11:45:20.780Z,99394.16
2018-04-15T11:47:48.584Z,99388.66
2018-04-15T11:50:16.181Z,99381.39
2018-04-15T11:52:43.768Z,99383.22
2018-04-15T11:55:11.423Z,99387.55
2018-04-15T11:57:39.011Z,99386.77
2018-04-15T12:00:06.656Z,99382.12
2018-04-15T12:02:34.401Z,99375.22
2018-04-15T12:05:02.012Z,99370.77
2018-04-15T12:07:29.610Z,99363.13
2018-04-15T12:09:57.236Z,99366.77
2018-04-15T12:12:24.880Z,99364.44
2018-04-15T12:14:52.467Z,99358.31
2018-04-15T12:17:20.250Z,99360.05
2018-04-15T12:19:47.848Z,99359.54
2018-04-15T12:22:15.444Z,99350.84
2018-04-15T12:24:43.260Z,99349.21
2018-04-15T12:27:10.848Z,99343.18
2018-04-15T12:29:38.990Z,99333.38
2018-04-15T12:32:06.633Z,99332.42
2018-04-15T12:34:34.227Z,99328.48
2018-04-15T12:37:01.829Z,99313.77
2018-04-15T12:39:29.455Z,99315.69
2018-04-15T12:41:57.040Z,99311.94
2018-04-15T12:44:24.709Z,99311.63
2018-04-15T12:46:52.414Z,99310.98
2018-04-15T12:49:20.077Z,99307.05
2018-04-15T12:51:47.668Z,99316.39
2018-04-15T12:54:15.386Z,99317.66
2018-04-15T12:56:42.969Z,99313.67
2018-04-15T12:59:10.556Z,99317.11
2018-04-15T13:01:38.276Z,99319.38
2018-04-15T13:04:05.874Z,99308.83
2018-04-15T13:06:33.463Z,99305.19
2018-04-15T13:09:01.308Z,99302.47
2018-04-15T13:11:28.886Z,99317.56
2018-04-15T13:13:56.544Z,99301.14
2018-04-15T13:16:24.256Z,99295.25
2018-04-15T13:18:51.897Z,99296.92
2018-04-15T13:21:19.604Z,99297.18
2018-04-15T13:23:48.124Z,99289.16
2018-04-15T13:26:15.848Z,99292.47
2018-04-15T13:28:43.517Z,99292.37
2018-04-15T13:31:11.348Z,99286.86
2018-04-15T13:33:38.948Z,99290.83
2018-04-15T13:36:06.573Z,99295.50
2018-04-15T13:38:34.202Z,99285.22
2018-04-15T13:41:01.820Z,99285.41
2018-04-15T13:43:29.428Z,99290.54
2018-04-15T13:45:57.156Z,99286.98
2018-04-15T13:48:24.819Z,99286.11
2018-04-15T13:50:52.435Z,99279.78
2018-04-15T13:53:20.161Z,99274.66
2018-04-15T13:55:47.811Z,99266.28
2018-04-15T13:58:15.411Z,99263.03
2018-04-15T14:00:43.046Z,99259.74
2018-04-15T14:03:10.758Z,99258.19
2018-04-15T14:05:38.385Z,99264.31
2018-04-15T14:08:06.113Z,99261.44
2018-04-15T14:10:33.737Z,99263.59
2018-04-15T14:13:01.447Z,99254.72
2018-04-15T14:15:29.106Z,99254.27
2018-04-15T14:17:56.756Z,99245.27
2018-04-15T14:20:24.341Z,99246.76
2018-04-15T14:22:52.147Z,99248.30
2018-04-15T14:25:19.871Z,99249.31
2018-04-15T14:27:47.452Z,99239.95
2018-04-15T14:30:15.137Z,99247.47
2018-04-15T14:32:42.924Z,99249.68
2018-04-15T14:35:10.543Z,99252.84
2018-04-15T14:37:38.176Z,99250.08
2018-04-15T14:40:05.777Z,99243.76
2018-04-15T14:42:34.267Z,99254.14
2018-04-15T14:45:01.990Z,99250.70
2018-04-15T14:47:29.581Z,99245.56
2018-04-15T14:49:57.187Z,99247.69
2018-04-15T14:52:26.943Z,99248.67
2018-04-15T14:54:54.931Z,99245.84
2018-04-15T14:57:22.615Z,99239.44
2018-04-15T14:59:50.352Z,99237.23
2018-04-15T15:02:17.962Z,99239.73
2018-04-15T15:04:45.654Z,99238.36
2018-04-15T15:07:13.300Z,99243.02
2018-04-15T15:09:40.926Z,99234.61
2018-04-15T15:12:08.541Z,99232.99
2018-04-15T15:14:36.184Z,99240.06
2018-04-15T15:17:03.787Z,99230.41
2018-04-15T15:19:31.460Z,99233.91
2018-04-15T15:21:59.144Z,99226.29
2018-04-15T15:24:27.860Z,99228.92
2018-04-15T15:26:55.459Z,99231.30
2018-04-15T15:29:23.088Z,99227.44
2018-04-15T15:31:50.703Z,99224.58
2018-04-15T15:34:20.064Z,99228.16
2018-04-15T15:36:47.716Z,99225.31
2018-04-15T15:39:15.350Z,99222.14
2018-04-15T15:41:43.005Z,99223.30
2018-04-15T15:44:10.705Z,99227.44
2018-04-15T15:46:38.373Z,99227.00
2018-04-15T15:49:06.032Z,99221.80
2018-04-15T15:51:33.761Z,99222.00
2018-04-15T15:54:01.411Z,99229.61
2018-04-15T15:56:29.022Z,99224.26
2018-04-15T15:58:56.753Z,99232.86
2018-04-15T16:01:24.365Z,99230.58
2018-04-15T16:03:52.077Z,99236.22
2018-04-15T16:06:19.713Z,99238.83
2018-04-15T16:08:47.306Z,99238.27
2018-04-15T16:11:14.981Z,99240.26
2018-04-15T16:13:43.682Z,99237.42
2018-04-15T16:16:11.285Z,99237.95
2018-04-15T16:18:38.881Z,99234.22
2018-04-15T16:21:06.529Z,99232.33
2018-04-15T16:23:34.233Z,99233.48
2018-04-15T16:26:01.833Z,99232.58
2018-04-15T16:28:29.552Z,99232.94
2018-04-15T16:30:57.217Z,99237.00
2018-04-15T16:33:24.875Z,99233.73
2018-04-15T16:35:59.504Z,99241.29
2018-04-15T16:38:27.343Z,99248.00
2018-04-15T16:40:55.013Z,99249.66
2018-04-15T16:43:22.777Z,99244.70
2018-04-15T16:45:50.427Z,99252.26
2018-04-15T16:48:18.077Z,99252.75
2018-04-15T16:50:45.795Z,99252.47
2018-04-15T16:53:13.456Z,99253.19
2018-04-15T16:55:41.123Z,99251.43
2018-04-15T16:58:08.854Z,99250.62
2018-04-15T17:00:36.452Z,99256.68
2018-04-15T17:03:04.142Z,99261.58
2018-04-15T17:05:31.844Z,99269.30
2018-04-15T17:07:59.500Z,99271.96
2018-04-15T17:10:27.160Z,99276.91
2018-04-15T17:12:54.974Z,99278.21
2018-04-15T17:15:23.384Z,99281.69
2018-04-15T17:17:50.981Z,99278.75
2018-04-15T17:20:18.661Z,99283.49
2018-04-15T17:22:46.268Z,99285.73
2018-04-15T17:25:13.865Z,99284.81
2018-04-15T17:27:41.600Z,99288.44
2018-04-15T17:30:09.201Z,99280.59
2018-04-15T17:32:36.796Z,99284.39
2018-04-15T17:35:04.456Z,99290.59
2018-04-15T17:37:32.402Z,99297.02
2018-04-15T17:39:59.996Z,99304.17
2018-04-15T17:42:27.801Z,99304.30
2018-04-15T17:44:55.495Z,99304.39
2018-04-15T17:47:23.165Z,99303.44
2018-04-15T17:49:50.885Z,99305.88
2018-04-15T17:52:18.542Z,99309.33
2018-04-15T17:54:46.188Z,99315.84
2018-04-15T17:57:14.032Z,99323.54
2018-04-15T17:59:41.725Z,99312.91
2018-04-15T18:02:09.344Z,99316.70
2018-04-15T18:04:37.141Z,99324.45
2018-04-15T18:07:04.791Z,99322.14
2018-04-15T18:09:32.410Z,99333.55
2018-04-15T18:12:00.200Z,99329.55
2018-04-15T18:14:27.844Z,99335.50
2018-04-15T18:16:55.519Z,99327.20
2018-04-15T18:19:23.180Z,99330.22
2018-04-15T18:21:51.472Z,99330.22
2018-04-15T18:24:19.086Z,99330.21
2018-04-15T18:26:46.812Z,99325.14
2018-04-15T18:29:14.401Z,99329.22
2018-04-15T18:31:42.104Z,99322.59
2018-04-15T18:34:09.905Z,99325.63
2018-04-15T18:36:37.535Z,99324.79
2018-04-15T18:39:06.200Z,99324.56
2018-04-15T18:41:33.838Z,99323.79
2018-04-15T18:44:01.522Z,99317.52
2018-04-15T18:46:29.202Z,99317.20
2018-04-15T18:48:56.989Z,99325.58
2018-04-15T18:51:24.571Z,99319.33
2018-04-15T18:53:52.148Z,99319.41
2018-04-15T18:56:19.785Z,99314.67
2018-04-15T18:58:47.380Z,99320.43
2018-04-15T19:01:15.005Z,99331.80
2018-04-15T19:03:42.696Z,99327.59
2018-04-15T19:06:10.369Z,99325.08
2018-04-15T19:08:38.009Z,99327.80
2018-04-15T19:11:05.818Z,99340.25
2018-04-15T19:13:33.493Z,99344.92
2018-04-15T19:16:01.100Z,99342.59
2018-04-15T19:18:29.287Z,99344.20
2018-04-15T19:20:56.885Z,99340.76
2018-04-15T19:23:24.552Z,99340.34
2018-04-15T19:25:52.278Z,99340.42
2018-04-15T19:28:19.875Z,99352.16
2018-04-15T19:30:47.480Z,99348.16
2018-04-15T19:33:15.195Z,99346.14
2018-04-15T19:35:42.779Z,99351.23
2018-04-15T19:38:10.360Z,99351.23
2018-04-15T19:40:38.248Z,99350.86
2018-04-15T19:43:05.895Z,99345.80
2018-04-15T19:45:33.524Z,99345.53
2018-04-15T19:48:01.176Z,99345.95
2018-04-15T19:50:28.856Z,99341.62
2018-04-15T19:52:56.440Z,99342.45
2018-04-15T19:55:24.111Z,99339.61
2018-04-15T19:57:51.731Z,99338.69
2018-04-15T20:00:19.316Z,99330.06
2018-04-15T20:02:47.055Z,99340.84
2018-04-15T20:05:14.670Z,99335.64
2018-04-15T20:07:42.332Z,99339.50
2018-04-15T20:10:09.956Z,99339.59
2018-04-15T20:12:37.640Z,99335.69
2018-04-15T20:15:05.244Z,99327.40
2018-04-15T20:17:33.073Z,99323.31
2018-04-15T20:20:00.720Z,99322.92
2018-04-15T20:22:28.459Z,99315.66
2018-04-15T20:24:56.105Z,99311.44
2018-04-15T20:27:23.696Z,99320.44
2018-04-15T20:29:51.408Z,99315.12
2018-04-15T20:32:19.160Z,99310.30
2018-04-15T20:34:46.752Z,99307.09
2018-04-15T20:37:14.353Z,99296.53
2018-04-15T20:39:42.172Z,99301.05
2018-04-15T20:42:10.369Z,99297.88
2018-04-15T20:44:38.045Z,99293.58
2018-04-15T20:47:05.731Z,99295.36
2018-04-15T20:49:33.385Z,99292.97
2018-04-15T20:52:00.981Z,99288.48
2018-04-15T20:54:28.694Z,99291.78
2018-04-15T20:56:56.312Z,99283.20
2018-04-15T20:59:23.968Z,99280.51
2018-04-15T21:01:52.384Z,99277.20
2018-04-15T21:04:20.057Z,99284.63
2018-04-15T21:06:47.682Z,99286.49
2018-04-15T21:09:15.328Z,99291.80
2018-04-15T21:11:43.803Z,99286.72
2018-04-15T21:14:11.381Z,99285.20
2018-04-15T21:16:39.072Z,99297.03
2018-04-15T21:19:06.666Z,99287.39
2018-04-15T21:21:34.265Z,99296.71
2018-04-15T21:24:02.028Z,99301.34
2018-04-15T21:26:29.685Z,99311.83
2018-04-15T21:28:57.277Z,99309.37
2018-04-15T21:31:24.916Z,99321.30
2018-04-15T21:33:52.581Z,99324.74
2018-04-15T21:36:20.236Z,99327.80
2018-04-15T21:41:25.196Z,99325.43
2018-04-15T21:43:52.910Z,99321.58
2018-04-15T21:46:21.357Z,99319.27
2018-04-15T21:48:49.379Z,99319.56
2018-04-15T21:51:16.979Z,99320.28
2018-04-15T21:53:44.587Z,99321.15
2018-04-15T21:56:12.243Z,99323.70
2018-04-15T21:58:39.836Z,99319.16
2018-04-15T22:01:07.427Z,99320.47
2018-04-15T22:03:35.126Z,99315.67
2018-04-15T22:06:02.791Z,99314.52
2018-04-15T22:08:30.389Z,99314.52
2018-04-15T22:10:58.056Z,99312.83
2018-04-15T22:13:25.725Z,99313.94
2018-04-15T22:15:53.300Z,99312.70
2018-04-15T22:18:21.036Z,99318.91
2018-04-15T22:20:48.727Z,99333.50
2018-04-15T22:23:16.372Z,99330.34
2018-04-15T22:25:44.100Z,99334.02
2018-04-15T22:28:11.692Z,99321.37
2018-04-15T22:30:39.349Z,99312.23
2018-04-15T22:33:07.074Z,99301.80
2018-04-15T22:35:34.732Z,99301.66
2018-04-15T22:38:02.409Z,99292.56
2018-04-15T22:40:30.304Z,99288.53
2018-04-15T22:42:57.950Z,99283.05
2018-04-15T22:45:25.789Z,99273.67
2018-04-15T22:47:59.315Z,99279.50
2018-04-15T22:50:32.415Z,99270.94
2018-04-15T22:53:00.186Z,99277.80
2018-04-15T22:55:27.779Z,99274.24
2018-04-15T22:57:55.392Z,99274.47
2018-04-15T23:00:23.069Z,99275.44
2018-04-15T23:02:50.682Z,99277.92
2018-04-15T23:05:18.284Z,99278.38
2018-04-15T23:07:46.016Z,99279.75
2018-04-15T23:10:13.613Z,99277.23
2018-04-15T23:12:41.322Z,99274.69
2018-04-15T23:15:08.952Z,99263.75
2018-04-15T23:17:36.641Z,99271.60
2018-04-15T23:20:05.055Z,99269.50
2018-04-15T23:22:33.659Z,99268.27
2018-04-15T23:25:01.292Z,99269.48
2018-04-15T23:27:28.887Z,99260.19
2018-04-15T23:29:56.541Z,99261.33
2018-04-15T23:32:24.202Z,99254.09
2018-04-15T23:34:51.853Z,99250.98
2018-04-15T23:37:19.600Z,99255.30
2018-04-15T23:39:47.297Z,99252.88
2018-04-15T23:42:14.957Z,99246.12
2018-04-15T23:44:42.625Z,99246.55
2018-04-15T23:47:11.248Z,99244.38
2018-04-15T23:49:38.840Z,99244.41
2018-04-15T23:52:06.508Z,99244.33
2018-04-15T23:54:34.199Z,99247.20
2018-04-15T23:57:01.861Z,99243.86
2018-04-15T23:59:29.696Z,99244.03
